sensor_id;sensor_type;location;lat;lon;timestamp;pressure;altitude;pressure_sealevel;temperature;humidity
78411;BME280;67706;51.074;-1.796;2023-03-01T00:02:14;102776.97;;;5.69;73.46
78411;BME280;67706;51.074;-1.796;2023-03-01T00:04:42;102774.84;;;5.61;73.94
78411;BME280;67706;51.074;-1.796;2023-03-01T00:07:08;102775.22;;;5.56;74.11
78411;BME280;67706;51.074;-1.796;2023-03-01T00:09:36;102779.91;;;5.54;74.05
78411;BME280;67706;51.074;-1.796;2023-03-01T00:12:04;102780.13;;;5.51;74.15
78411;BME280;67706;51.074;-1.796;2023-03-01T00:14:31;102781.47;;;5.46;74.45
78411;BME280;67706;51.074;-1.796;2023-03-01T00:16:58;102776.66;;;5.49;74.53
78411;BME280;67706;51.074;-1.796;2023-03-01T00:19:25;102772.69;;;5.42;74.78
78411;BME280;67706;51.074;-1.796;2023-03-01T00:21:53;102780.44;;;5.36;75.02
78411;BME280;67706;51.074;-1.796;2023-03-01T00:24:20;102774.13;;;5.35;74.73
78411;BME280;67706;51.074;-1.796;2023-03-01T00:26:47;102778.69;;;5.35;75.13
78411;BME280;67706;51.074;-1.796;2023-03-01T00:29:13;102774.06;;;5.24;75.22
78411;BME280;67706;51.074;-1.796;2023-03-01T00:31:40;102785.94;;;5.23;75.37
78411;BME280;67706;51.074;-1.796;2023-03-01T00:34:06;102779.38;;;5.26;75.30
78411;BME280;67706;51.074;-1.796;2023-03-01T00:36:35;102767.25;;;5.19;75.12
78411;BME280;67706;51.074;-1.796;2023-03-01T00:39:07;102775.16;;;5.22;75.29
78411;BME280;67706;51.074;-1.796;2023-03-01T00:41:34;102774.41;;;5.20;75.36
78411;BME280;67706;51.074;-1.796;2023-03-01T00:44:00;102772.50;;;5.09;75.64
78411;BME280;67706;51.074;-1.796;2023-03-01T00:46:27;102776.63;;;5.15;75.36
78411;BME280;67706;51.074;-1.796;2023-03-01T00:48:55;102778.59;;;5.13;75.20
78411;BME280;67706;51.074;-1.796;2023-03-01T00:51:24;102782.94;;;5.15;75.27
78411;BME280;67706;51.074;-1.796;2023-03-01T00:53:52;102781.59;;;5.21;75.14
78411;BME280;67706;51.074;-1.796;2023-03-01T00:56:20;102782.06;;;5.15;75.11
78411;BME280;67706;51.074;-1.796;2023-03-01T00:58:47;102777.94;;;5.09;75.59
78411;BME280;67706;51.074;-1.796;2023-03-01T01:01:16;102785.13;;;5.10;75.83
78411;BME280;67706;51.074;-1.796;2023-03-01T01:03:45;102778.06;;;5.08;75.52
78411;BME280;67706;51.074;-1.796;2023-03-01T01:06:19;102773.63;;;5.07;75.42
78411;BME280;67706;51.074;-1.796;2023-03-01T01:08:47;102777.09;;;5.09;75.85
78411;BME280;67706;51.074;-1.796;2023-03-01T01:11:15;102768.56;;;5.13;75.30
78411;BME280;67706;51.074;-1.796;2023-03-01T01:13:44;102772.22;;;5.01;75.69
78411;BME280;67706;51.074;-1.796;2023-03-01T01:16:11;102770.38;;;5.02;76.00
78411;BME280;67706;51.074;-1.796;2023-03-01T01:18:38;102770.91;;;5.07;75.62
78411;BME280;67706;51.074;-1.796;2023-03-01T01:21:07;102772.13;;;5.03;76.08
78411;BME280;67706;51.074;-1.796;2023-03-01T01:23:35;102772.34;;;5.00;76.21
78411;BME280;67706;51.074;-1.796;2023-03-01T01:26:06;102775.81;;;5.02;76.04
78411;BME280;67706;51.074;-1.796;2023-03-01T01:28:33;102782.34;;;4.99;76.21
78411;BME280;67706;51.074;-1.796;2023-03-01T01:31:01;102778.19;;;5.06;76.19
78411;BME280;67706;51.074;-1.796;2023-03-01T01:33:28;102773.09;;;5.02;76.22
78411;BME280;67706;51.074;-1.796;2023-03-01T01:35:54;102768.41;;;5.04;75.68
78411;BME280;67706;51.074;-1.796;2023-03-01T01:38:21;102774.72;;;5.04;75.80
78411;BME280;67706;51.074;-1.796;2023-03-01T01:40:49;102773.84;;;5.04;76.07
78411;BME280;67706;51.074;-1.796;2023-03-01T01:43:21;102770.59;;;4.99;76.04
78411;BME280;67706;51.074;-1.796;2023-03-01T01:45:48;102770.78;;;5.08;75.55
78411;BME280;67706;51.074;-1.796;2023-03-01T01:48:20;102773.63;;;5.07;75.53
78411;BME280;67706;51.074;-1.796;2023-03-01T01:50:53;102772.28;;;5.12;75.70
78411;BME280;67706;51.074;-1.796;2023-03-01T01:53:21;102762.75;;;5.07;75.57
78411;BME280;67706;51.074;-1.796;2023-03-01T01:55:52;102770.94;;;5.18;75.44
78411;BME280;67706;51.074;-1.796;2023-03-01T01:58:24;102766.72;;;5.14;75.24
78411;BME280;67706;51.074;-1.796;2023-03-01T02:00:53;102766.50;;;5.17;75.15
78411;BME280;67706;51.074;-1.796;2023-03-01T02:03:24;102758.56;;;5.14;75.17
78411;BME280;67706;51.074;-1.796;2023-03-01T02:05:58;102764.88;;;5.14;75.44
78411;BME280;67706;51.074;-1.796;2023-03-01T02:08:30;102757.06;;;5.10;75.67
78411;BME280;67706;51.074;-1.796;2023-03-01T02:10:58;102751.88;;;5.07;75.64
78411;BME280;67706;51.074;-1.796;2023-03-01T02:13:26;102753.16;;;5.01;75.69
78411;BME280;67706;51.074;-1.796;2023-03-01T02:15:53;102742.41;;;5.00;75.74
78411;BME280;67706;51.074;-1.796;2023-03-01T02:18:22;102747.63;;;5.03;75.69
78411;BME280;67706;51.074;-1.796;2023-03-01T02:21:00;102745.59;;;4.94;76.44
78411;BME280;67706;51.074;-1.796;2023-03-01T02:23:31;102728.81;;;5.00;75.63
78411;BME280;67706;51.074;-1.796;2023-03-01T02:26:04;102735.97;;;5.01;75.82
78411;BME280;67706;51.074;-1.796;2023-03-01T02:28:35;102737.84;;;5.00;75.86
78411;BME280;67706;51.074;-1.796;2023-03-01T02:31:05;102739.69;;;5.00;75.96
78411;BME280;67706;51.074;-1.796;2023-03-01T02:33:51;102740.16;;;4.94;75.99
78411;BME280;67706;51.074;-1.796;2023-03-01T02:36:20;102735.13;;;5.00;75.74
78411;BME280;67706;51.074;-1.796;2023-03-01T02:38:50;102727.31;;;4.96;76.06
78411;BME280;67706;51.074;-1.796;2023-03-01T02:41:19;102725.56;;;4.95;75.80
78411;BME280;67706;51.074;-1.796;2023-03-01T02:43:47;102720.38;;;4.92;76.19
78411;BME280;67706;51.074;-1.796;2023-03-01T02:46:16;102724.06;;;4.91;76.20
78411;BME280;67706;51.074;-1.796;2023-03-01T02:48:45;102728.19;;;4.96;75.93
78411;BME280;67706;51.074;-1.796;2023-03-01T02:51:33;102725.81;;;4.92;76.06
78411;BME280;67706;51.074;-1.796;2023-03-01T02:54:12;102725.41;;;4.85;76.50
78411;BME280;67706;51.074;-1.796;2023-03-01T02:56:42;102721.47;;;4.89;76.06
78411;BME280;67706;51.074;-1.796;2023-03-01T02:59:11;102724.88;;;4.80;76.62
78411;BME280;67706;51.074;-1.796;2023-03-01T03:01:39;102720.31;;;4.80;76.75
78411;BME280;67706;51.074;-1.796;2023-03-01T03:04:09;102720.66;;;4.76;76.37
78411;BME280;67706;51.074;-1.796;2023-03-01T03:06:36;102724.53;;;4.84;76.12
78411;BME280;67706;51.074;-1.796;2023-03-01T03:09:03;102711.41;;;4.78;76.29
78411;BME280;67706;51.074;-1.796;2023-03-01T03:11:30;102725.13;;;4.77;76.61
78411;BME280;67706;51.074;-1.796;2023-03-01T03:13:58;102717.47;;;4.82;76.48
78411;BME280;67706;51.074;-1.796;2023-03-01T03:16:26;102724.88;;;4.80;76.39
78411;BME280;67706;51.074;-1.796;2023-03-01T03:18:55;102719.69;;;4.77;76.54
78411;BME280;67706;51.074;-1.796;2023-03-01T03:21:30;102711.19;;;4.81;76.29
78411;BME280;67706;51.074;-1.796;2023-03-01T03:23:57;102711.75;;;4.74;76.73
78411;BME280;67706;51.074;-1.796;2023-03-01T03:26:24;102712.63;;;4.74;76.93
78411;BME280;67706;51.074;-1.796;2023-03-01T03:28:51;102701.97;;;4.71;76.72
78411;BME280;67706;51.074;-1.796;2023-03-01T03:31:17;102704.59;;;4.73;76.81
78411;BME280;67706;51.074;-1.796;2023-03-01T03:33:45;102705.97;;;4.78;76.43
78411;BME280;67706;51.074;-1.796;2023-03-01T03:36:15;102699.78;;;4.76;76.60
78411;BME280;67706;51.074;-1.796;2023-03-01T03:38:43;102688.38;;;4.71;76.69
78411;BME280;67706;51.074;-1.796;2023-03-01T03:41:11;102686.97;;;4.66;76.92
78411;BME280;67706;51.074;-1.796;2023-03-01T03:43:39;102689.59;;;4.67;76.68
78411;BME280;67706;51.074;-1.796;2023-03-01T03:46:08;102694.56;;;4.73;76.34
78411;BME280;67706;51.074;-1.796;2023-03-01T03:48:37;102698.72;;;4.66;76.65
78411;BME280;67706;51.074;-1.796;2023-03-01T03:51:06;102688.94;;;4.64;76.94
78411;BME280;67706;51.074;-1.796;2023-03-01T03:53:33;102690.03;;;4.61;76.97
78411;BME280;67706;51.074;-1.796;2023-03-01T03:56:00;102682.97;;;4.59;77.06
78411;BME280;67706;51.074;-1.796;2023-03-01T03:58:27;102688.94;;;4.64;77.21
78411;BME280;67706;51.074;-1.796;2023-03-01T04:00:55;102692.41;;;4.66;76.87
78411;BME280;67706;51.074;-1.796;2023-03-01T04:03:23;102684.72;;;4.60;76.85
78411;BME280;67706;51.074;-1.796;2023-03-01T04:05:51;102687.84;;;4.66;76.74
78411;BME280;67706;51.074;-1.796;2023-03-01T04:08:20;102678.28;;;4.61;76.82
78411;BME280;67706;51.074;-1.796;2023-03-01T04:10:48;102678.50;;;4.70;76.75
78411;BME280;67706;51.074;-1.796;2023-03-01T04:13:16;102679.63;;;4.55;77.48
78411;BME280;67706;51.074;-1.796;2023-03-01T04:15:45;102670.72;;;4.53;77.52
78411;BME280;67706;51.074;-1.796;2023-03-01T04:18:13;102679.97;;;4.51;77.87
78411;BME280;67706;51.074;-1.796;2023-03-01T04:20:40;102666.28;;;4.52;77.69
78411;BME280;67706;51.074;-1.796;2023-03-01T04:23:10;102678.34;;;4.48;78.71
78411;BME280;67706;51.074;-1.796;2023-03-01T04:25:41;102671.41;;;4.44;78.58
78411;BME280;67706;51.074;-1.796;2023-03-01T04:28:09;102666.09;;;4.43;78.45
78411;BME280;67706;51.074;-1.796;2023-03-01T04:30:37;102663.50;;;4.41;78.56
78411;BME280;67706;51.074;-1.796;2023-03-01T04:33:05;102672.41;;;4.43;78.22
78411;BME280;67706;51.074;-1.796;2023-03-01T04:35:32;102665.75;;;4.47;78.41
78411;BME280;67706;51.074;-1.796;2023-03-01T04:37:59;102671.81;;;4.51;78.31
78411;BME280;67706;51.074;-1.796;2023-03-01T04:40:26;102664.47;;;4.40;78.92
78411;BME280;67706;51.074;-1.796;2023-03-01T04:42:54;102671.66;;;4.41;78.57
78411;BME280;67706;51.074;-1.796;2023-03-01T04:45:21;102663.25;;;4.44;78.86
78411;BME280;67706;51.074;-1.796;2023-03-01T04:47:48;102658.81;;;4.43;78.79
78411;BME280;67706;51.074;-1.796;2023-03-01T04:50:16;102661.22;;;4.35;79.17
78411;BME280;67706;51.074;-1.796;2023-03-01T04:52:45;102662.94;;;4.36;79.33
78411;BME280;67706;51.074;-1.796;2023-03-01T04:55:13;102655.47;;;4.40;79.34
78411;BME280;67706;51.074;-1.796;2023-03-01T04:57:40;102660.94;;;4.27;80.13
78411;BME280;67706;51.074;-1.796;2023-03-01T05:00:13;102651.72;;;4.17;79.88
78411;BME280;67706;51.074;-1.796;2023-03-01T05:02:49;102656.69;;;4.23;80.15
78411;BME280;67706;51.074;-1.796;2023-03-01T05:05:26;102655.19;;;4.19;80.51
78411;BME280;67706;51.074;-1.796;2023-03-01T05:07:58;102660.19;;;4.25;80.01
78411;BME280;67706;51.074;-1.796;2023-03-01T05:10:26;102661.34;;;4.21;80.06
78411;BME280;67706;51.074;-1.796;2023-03-01T05:12:54;102657.59;;;4.11;80.52
78411;BME280;67706;51.074;-1.796;2023-03-01T05:15:24;102652.41;;;4.08;80.26
78411;BME280;67706;51.074;-1.796;2023-03-01T05:17:52;102655.66;;;4.00;80.03
78411;BME280;67706;51.074;-1.796;2023-03-01T05:20:19;102657.09;;;3.93;80.69
78411;BME280;67706;51.074;-1.796;2023-03-01T05:22:48;102648.50;;;3.99;80.26
78411;BME280;67706;51.074;-1.796;2023-03-01T05:25:15;102647.63;;;3.99;79.83
78411;BME280;67706;51.074;-1.796;2023-03-01T05:27:43;102645.13;;;3.96;79.65
78411;BME280;67706;51.074;-1.796;2023-03-01T05:30:10;102646.31;;;3.92;79.69
78411;BME280;67706;51.074;-1.796;2023-03-01T05:32:42;102646.13;;;3.82;80.04
78411;BME280;67706;51.074;-1.796;2023-03-01T05:35:10;102639.06;;;3.92;79.63
78411;BME280;67706;51.074;-1.796;2023-03-01T05:37:39;102641.56;;;3.95;79.17
78411;BME280;67706;51.074;-1.796;2023-03-01T05:40:07;102632.44;;;3.84;79.76
78411;BME280;67706;51.074;-1.796;2023-03-01T05:42:42;102641.03;;;3.78;80.13
78411;BME280;67706;51.074;-1.796;2023-03-01T05:45:09;102640.47;;;3.73;80.60
78411;BME280;67706;51.074;-1.796;2023-03-01T05:47:37;102635.91;;;3.86;79.86
78411;BME280;67706;51.074;-1.796;2023-03-01T05:50:07;102635.03;;;3.85;79.60
78411;BME280;67706;51.074;-1.796;2023-03-01T05:52:33;102631.47;;;3.85;80.02
78411;BME280;67706;51.074;-1.796;2023-03-01T05:55:00;102633.00;;;3.89;79.85
78411;BME280;67706;51.074;-1.796;2023-03-01T05:57:27;102634.06;;;3.99;79.37
78411;BME280;67706;51.074;-1.796;2023-03-01T05:59:54;102631.34;;;3.99;79.55
78411;BME280;67706;51.074;-1.796;2023-03-01T06:02:21;102628.50;;;4.00;79.23
78411;BME280;67706;51.074;-1.796;2023-03-01T06:04:48;102625.69;;;4.02;79.44
78411;BME280;67706;51.074;-1.796;2023-03-01T06:07:16;102627.72;;;4.11;78.81
78411;BME280;67706;51.074;-1.796;2023-03-01T06:09:42;102633.09;;;4.00;79.42
78411;BME280;67706;51.074;-1.796;2023-03-01T06:12:10;102631.78;;;3.93;79.60
78411;BME280;67706;51.074;-1.796;2023-03-01T06:14:36;102634.84;;;3.88;79.89
78411;BME280;67706;51.074;-1.796;2023-03-01T06:17:03;102633.19;;;3.86;79.91
78411;BME280;67706;51.074;-1.796;2023-03-01T06:19:30;102635.38;;;3.93;79.76
78411;BME280;67706;51.074;-1.796;2023-03-01T06:21:56;102631.66;;;3.94;79.58
78411;BME280;67706;51.074;-1.796;2023-03-01T06:24:24;102627.13;;;3.95;79.35
78411;BME280;67706;51.074;-1.796;2023-03-01T06:26:52;102637.09;;;3.94;79.74
78411;BME280;67706;51.074;-1.796;2023-03-01T06:29:19;102626.34;;;3.93;79.72
78411;BME280;67706;51.074;-1.796;2023-03-01T06:31:47;102636.34;;;3.92;79.81
78411;BME280;67706;51.074;-1.796;2023-03-01T06:34:14;102637.97;;;3.95;79.73
78411;BME280;67706;51.074;-1.796;2023-03-01T06:36:40;102634.38;;;3.94;79.61
78411;BME280;67706;51.074;-1.796;2023-03-01T06:39:07;102626.34;;;3.93;79.76
78411;BME280;67706;51.074;-1.796;2023-03-01T06:41:35;102628.31;;;3.91;80.17
78411;BME280;67706;51.074;-1.796;2023-03-01T06:44:02;102625.34;;;3.94;79.81
78411;BME280;67706;51.074;-1.796;2023-03-01T06:46:29;102628.94;;;3.94;80.10
78411;BME280;67706;51.074;-1.796;2023-03-01T06:48:56;102631.34;;;3.99;80.09
78411;BME280;67706;51.074;-1.796;2023-03-01T06:51:22;102630.38;;;4.00;79.80
78411;BME280;67706;51.074;-1.796;2023-03-01T06:53:50;102631.00;;;4.03;79.79
78411;BME280;67706;51.074;-1.796;2023-03-01T06:56:16;102640.78;;;4.06;79.76
78411;BME280;67706;51.074;-1.796;2023-03-01T06:58:44;102642.00;;;4.02;79.73
78411;BME280;67706;51.074;-1.796;2023-03-01T07:01:11;102648.94;;;4.06;80.01
78411;BME280;67706;51.074;-1.796;2023-03-01T07:03:38;102651.28;;;4.11;79.41
78411;BME280;67706;51.074;-1.796;2023-03-01T07:06:05;102658.59;;;4.10;79.91
78411;BME280;67706;51.074;-1.796;2023-03-01T07:08:31;102653.22;;;4.21;79.03
78411;BME280;67706;51.074;-1.796;2023-03-01T07:10:58;102660.59;;;4.19;79.01
78411;BME280;67706;51.074;-1.796;2023-03-01T07:13:27;102659.66;;;4.20;79.45
78411;BME280;67706;51.074;-1.796;2023-03-01T07:15:55;102663.31;;;4.19;79.21
78411;BME280;67706;51.074;-1.796;2023-03-01T07:18:22;102653.91;;;4.12;79.14
78411;BME280;67706;51.074;-1.796;2023-03-01T07:20:49;102663.88;;;4.24;79.11
78411;BME280;67706;51.074;-1.796;2023-03-01T07:23:15;102672.56;;;4.29;78.91
78411;BME280;67706;51.074;-1.796;2023-03-01T07:25:42;102668.63;;;4.33;78.41
78411;BME280;67706;51.074;-1.796;2023-03-01T07:28:08;102669.09;;;4.27;78.52
78411;BME280;67706;51.074;-1.796;2023-03-01T07:30:35;102672.88;;;4.25;78.84
78411;BME280;67706;51.074;-1.796;2023-03-01T07:33:03;102665.38;;;4.28;78.96
78411;BME280;67706;51.074;-1.796;2023-03-01T07:35:30;102671.69;;;4.29;78.90
78411;BME280;67706;51.074;-1.796;2023-03-01T07:37:58;102680.16;;;4.24;79.04
78411;BME280;67706;51.074;-1.796;2023-03-01T07:40:25;102677.31;;;4.26;78.75
78411;BME280;67706;51.074;-1.796;2023-03-01T07:42:55;102675.59;;;4.25;79.23
78411;BME280;67706;51.074;-1.796;2023-03-01T07:45:21;102686.13;;;4.29;78.82
78411;BME280;67706;51.074;-1.796;2023-03-01T07:47:49;102678.19;;;4.26;78.71
78411;BME280;67706;51.074;-1.796;2023-03-01T07:50:18;102687.53;;;4.35;78.78
78411;BME280;67706;51.074;-1.796;2023-03-01T07:52:45;102685.34;;;4.40;78.61
78411;BME280;67706;51.074;-1.796;2023-03-01T07:55:12;102682.97;;;4.35;78.56
78411;BME280;67706;51.074;-1.796;2023-03-01T07:57:39;102683.56;;;4.51;77.85
78411;BME280;67706;51.074;-1.796;2023-03-01T08:00:08;102676.28;;;4.52;77.84
78411;BME280;67706;51.074;-1.796;2023-03-01T08:02:36;102676.16;;;4.53;77.51
78411;BME280;67706;51.074;-1.796;2023-03-01T08:05:03;102682.06;;;4.47;77.25
78411;BME280;67706;51.074;-1.796;2023-03-01T08:07:32;102668.22;;;4.50;77.25
78411;BME280;67706;51.074;-1.796;2023-03-01T08:09:59;102664.06;;;4.57;76.94
78411;BME280;67706;51.074;-1.796;2023-03-01T08:12:26;102665.47;;;4.63;77.10
78411;BME280;67706;51.074;-1.796;2023-03-01T08:14:53;102657.84;;;4.68;76.69
78411;BME280;67706;51.074;-1.796;2023-03-01T08:17:20;102660.44;;;4.69;76.29
78411;BME280;67706;51.074;-1.796;2023-03-01T08:19:46;102651.94;;;4.74;76.21
78411;BME280;67706;51.074;-1.796;2023-03-01T08:22:13;102656.91;;;4.80;75.39
78411;BME280;67706;51.074;-1.796;2023-03-01T08:24:41;102657.56;;;4.83;75.47
78411;BME280;67706;51.074;-1.796;2023-03-01T08:27:07;102653.84;;;4.84;75.61
78411;BME280;67706;51.074;-1.796;2023-03-01T08:29:34;102644.59;;;4.87;75.40
78411;BME280;67706;51.074;-1.796;2023-03-01T08:32:00;102648.19;;;4.88;75.01
78411;BME280;67706;51.074;-1.796;2023-03-01T08:34:27;102650.31;;;4.95;75.09
78411;BME280;67706;51.074;-1.796;2023-03-01T08:36:54;102643.75;;;4.98;74.14
78411;BME280;67706;51.074;-1.796;2023-03-01T08:39:20;102646.13;;;5.02;73.90
78411;BME280;67706;51.074;-1.796;2023-03-01T08:41:48;102643.28;;;5.04;73.74
78411;BME280;67706;51.074;-1.796;2023-03-01T08:44:15;102644.78;;;5.08;73.82
78411;BME280;67706;51.074;-1.796;2023-03-01T08:46:43;102647.78;;;5.16;73.41
78411;BME280;67706;51.074;-1.796;2023-03-01T08:49:12;102641.38;;;5.17;72.86
78411;BME280;67706;51.074;-1.796;2023-03-01T08:51:39;102642.97;;;5.19;72.11
78411;BME280;67706;51.074;-1.796;2023-03-01T08:54:09;102641.38;;;5.28;72.23
78411;BME280;67706;51.074;-1.796;2023-03-01T08:56:36;102636.44;;;5.33;71.77
78411;BME280;67706;51.074;-1.796;2023-03-01T08:59:04;102633.00;;;5.42;71.04
78411;BME280;67706;51.074;-1.796;2023-03-01T09:01:31;102644.41;;;5.58;70.44
78411;BME280;67706;51.074;-1.796;2023-03-01T09:03:58;102642.44;;;5.60;70.55
78411;BME280;67706;51.074;-1.796;2023-03-01T09:06:25;102648.50;;;5.75;70.65
78411;BME280;67706;51.074;-1.796;2023-03-01T09:08:52;102637.50;;;5.76;69.61
78411;BME280;67706;51.074;-1.796;2023-03-01T09:11:21;102639.00;;;5.69;69.50
78411;BME280;67706;51.074;-1.796;2023-03-01T09:13:49;102647.66;;;5.63;69.56
78411;BME280;67706;51.074;-1.796;2023-03-01T09:16:18;102636.50;;;5.66;70.16
78411;BME280;67706;51.074;-1.796;2023-03-01T09:18:49;102647.50;;;5.64;69.79
78411;BME280;67706;51.074;-1.796;2023-03-01T09:21:16;102644.91;;;5.74;69.81
78411;BME280;67706;51.074;-1.796;2023-03-01T09:23:45;102644.19;;;5.83;69.46
78411;BME280;67706;51.074;-1.796;2023-03-01T09:26:13;102649.63;;;5.83;69.05
78411;BME280;67706;51.074;-1.796;2023-03-01T09:28:42;102637.03;;;5.82;69.28
78411;BME280;67706;51.074;-1.796;2023-03-01T09:31:09;102638.13;;;5.80;69.78
78411;BME280;67706;51.074;-1.796;2023-03-01T09:33:40;102634.66;;;5.78;69.71
78411;BME280;67706;51.074;-1.796;2023-03-01T09:36:10;102630.06;;;5.78;69.76
78411;BME280;67706;51.074;-1.796;2023-03-01T09:38:38;102625.91;;;5.85;69.53
78411;BME280;67706;51.074;-1.796;2023-03-01T09:41:11;102622.81;;;5.90;69.49
78411;BME280;67706;51.074;-1.796;2023-03-01T09:43:44;102623.41;;;5.93;68.94
78411;BME280;67706;51.074;-1.796;2023-03-01T09:46:14;102607.84;;;5.84;69.05
78411;BME280;67706;51.074;-1.796;2023-03-01T09:48:48;102615.50;;;5.90;69.69
78411;BME280;67706;51.074;-1.796;2023-03-01T09:51:18;102609.44;;;5.98;68.62
78411;BME280;67706;51.074;-1.796;2023-03-01T09:53:47;102609.19;;;6.01;68.60
78411;BME280;67706;51.074;-1.796;2023-03-01T09:56:19;102594.06;;;6.08;68.70
78411;BME280;67706;51.074;-1.796;2023-03-01T09:58:51;102597.66;;;6.19;68.49
78411;BME280;67706;51.074;-1.796;2023-03-01T10:01:28;102590.81;;;6.14;68.40
78411;BME280;67706;51.074;-1.796;2023-03-01T10:04:12;102600.47;;;6.18;67.21
78411;BME280;67706;51.074;-1.796;2023-03-01T10:06:50;102587.25;;;6.13;68.10
78411;BME280;67706;51.074;-1.796;2023-03-01T10:09:19;102589.94;;;6.24;67.40
78411;BME280;67706;51.074;-1.796;2023-03-01T10:11:49;102587.84;;;6.17;67.42
78411;BME280;67706;51.074;-1.796;2023-03-01T10:14:27;102582.91;;;6.22;66.72
78411;BME280;67706;51.074;-1.796;2023-03-01T10:16:58;102583.22;;;6.39;66.53
78411;BME280;67706;51.074;-1.796;2023-03-01T10:19:32;102580.25;;;6.31;66.51
78411;BME280;67706;51.074;-1.796;2023-03-01T10:22:03;102570.59;;;6.38;66.28
78411;BME280;67706;51.074;-1.796;2023-03-01T10:24:34;102569.44;;;6.41;65.87
78411;BME280;67706;51.074;-1.796;2023-03-01T10:27:05;102579.97;;;6.46;65.94
78411;BME280;67706;51.074;-1.796;2023-03-01T10:29:37;102568.22;;;6.45;65.76
78411;BME280;67706;51.074;-1.796;2023-03-01T10:32:06;102571.34;;;6.29;65.99
78411;BME280;67706;51.074;-1.796;2023-03-01T10:34:35;102564.66;;;6.22;68.69
78411;BME280;67706;51.074;-1.796;2023-03-01T10:37:11;102570.63;;;6.16;69.18
78411;BME280;67706;51.074;-1.796;2023-03-01T10:39:55;102568.19;;;6.02;68.89
78411;BME280;67706;51.074;-1.796;2023-03-01T10:42:27;102565.47;;;6.13;68.81
78411;BME280;67706;51.074;-1.796;2023-03-01T10:44:54;102566.56;;;6.22;68.34
78411;BME280;67706;51.074;-1.796;2023-03-01T10:47:22;102564.31;;;6.16;67.76
78411;BME280;67706;51.074;-1.796;2023-03-01T10:49:54;102564.59;;;6.13;67.94
78411;BME280;67706;51.074;-1.796;2023-03-01T10:52:23;102569.53;;;6.19;68.21
78411;BME280;67706;51.074;-1.796;2023-03-01T10:54:53;102567.75;;;6.29;68.24
78411;BME280;67706;51.074;-1.796;2023-03-01T10:57:33;102564.16;;;6.28;67.84
78411;BME280;67706;51.074;-1.796;2023-03-01T11:00:23;102562.44;;;6.27;67.75
78411;BME280;67706;51.074;-1.796;2023-03-01T11:03:03;102554.41;;;6.26;67.47
78411;BME280;67706;51.074;-1.796;2023-03-01T11:05:51;102550.06;;;6.23;67.78
78411;BME280;67706;51.074;-1.796;2023-03-01T11:08:29;102542.84;;;6.33;67.61
78411;BME280;67706;51.074;-1.796;2023-03-01T11:11:13;102541.75;;;6.25;67.21
78411;BME280;67706;51.074;-1.796;2023-03-01T11:13:50;102547.16;;;6.47;67.32
78411;BME280;67706;51.074;-1.796;2023-03-01T11:16:24;102540.50;;;6.61;66.84
78411;BME280;67706;51.074;-1.796;2023-03-01T11:19:17;102540.78;;;6.58;66.50
78411;BME280;67706;51.074;-1.796;2023-03-01T11:21:52;102533.53;;;6.68;65.52
78411;BME280;67706;51.074;-1.796;2023-03-01T11:24:26;102525.09;;;6.71;64.99
78411;BME280;67706;51.074;-1.796;2023-03-01T11:26:54;102525.41;;;6.77;65.02
78411;BME280;67706;51.074;-1.796;2023-03-01T11:29:28;102519.03;;;6.88;65.11
78411;BME280;67706;51.074;-1.796;2023-03-01T11:31:59;102518.78;;;6.91;64.67
78411;BME280;67706;51.074;-1.796;2023-03-01T11:34:38;102521.44;;;6.81;65.03
78411;BME280;67706;51.074;-1.796;2023-03-01T11:37:15;102509.53;;;6.82;65.15
78411;BME280;67706;51.074;-1.796;2023-03-01T11:39:49;102506.41;;;6.87;65.06
78411;BME280;67706;51.074;-1.796;2023-03-01T11:42:20;102515.44;;;6.67;65.07
78411;BME280;67706;51.074;-1.796;2023-03-01T11:44:50;102508.91;;;6.58;65.51
78411;BME280;67706;51.074;-1.796;2023-03-01T11:47:32;102512.50;;;6.59;65.85
78411;BME280;67706;51.074;-1.796;2023-03-01T11:50:17;102508.66;;;6.61;65.78
78411;BME280;67706;51.074;-1.796;2023-03-01T11:53:00;102503.94;;;6.63;66.01
78411;BME280;67706;51.074;-1.796;2023-03-01T11:55:45;102507.25;;;6.67;66.07
78411;BME280;67706;51.074;-1.796;2023-03-01T11:58:24;102498.09;;;6.68;66.21
78411;BME280;67706;51.074;-1.796;2023-03-01T12:01:03;102489.28;;;6.64;66.48
78411;BME280;67706;51.074;-1.796;2023-03-01T12:03:47;102490.66;;;6.70;66.20
78411;BME280;67706;51.074;-1.796;2023-03-01T12:06:28;102485.38;;;6.78;65.71
78411;BME280;67706;51.074;-1.796;2023-03-01T12:09:17;102479.06;;;6.77;65.38
78411;BME280;67706;51.074;-1.796;2023-03-01T12:12:00;102473.00;;;6.74;65.46
78411;BME280;67706;51.074;-1.796;2023-03-01T12:15:03;102468.00;;;6.79;65.14
78411;BME280;67706;51.074;-1.796;2023-03-01T12:17:47;102477.34;;;6.76;65.05
78411;BME280;67706;51.074;-1.796;2023-03-01T12:20:21;102463.81;;;6.75;65.31
78411;BME280;67706;51.074;-1.796;2023-03-01T12:23:03;102451.88;;;6.87;64.79
78411;BME280;67706;51.074;-1.796;2023-03-01T12:25:38;102442.84;;;6.96;64.41
78411;BME280;67706;51.074;-1.796;2023-03-01T12:28:21;102448.78;;;7.01;64.61
78411;BME280;67706;51.074;-1.796;2023-03-01T12:31:00;102441.50;;;7.11;64.32
78411;BME280;67706;51.074;-1.796;2023-03-01T12:33:36;102434.44;;;7.08;64.56
78411;BME280;67706;51.074;-1.796;2023-03-01T12:36:36;102432.44;;;7.10;64.25
78411;BME280;67706;51.074;-1.796;2023-03-01T12:39:19;102426.88;;;7.12;64.62
78411;BME280;67706;51.074;-1.796;2023-03-01T12:41:58;102420.13;;;7.16;63.98
78411;BME280;67706;51.074;-1.796;2023-03-01T12:45:03;102416.13;;;7.30;66.11
78411;BME280;67706;51.074;-1.796;2023-03-01T12:47:50;102403.69;;;7.46;63.90
78411;BME280;67706;51.074;-1.796;2023-03-01T12:50:21;102396.69;;;7.53;63.67
78411;BME280;67706;51.074;-1.796;2023-03-01T12:52:51;102399.97;;;7.47;63.94
78411;BME280;67706;51.074;-1.796;2023-03-01T12:55:26;102395.19;;;7.40;64.11
78411;BME280;67706;51.074;-1.796;2023-03-01T12:58:04;102382.44;;;7.50;64.23
78411;BME280;67706;51.074;-1.796;2023-03-01T13:00:40;102377.41;;;7.55;63.95
78411;BME280;67706;51.074;-1.796;2023-03-01T13:03:18;102372.94;;;7.44;64.11
78411;BME280;67706;51.074;-1.796;2023-03-01T13:05:58;102371.47;;;7.31;64.57
78411;BME280;67706;51.074;-1.796;2023-03-01T13:08:31;102369.78;;;7.39;64.56